Time;durP1;ratioP1;P1;durP2;ratioP2;P2;SDS_P1;SDS_P2;PMS_P1;PMS_P2;Temp;Humidity;BMP_temperature;BMP_pressure;BME280_temperature;BME280_humidity;BME280_pressure;Samples;Min_cycle;Max_cycle;Signal;HPM_P1;HPM_P2
2023/06/30 00:00:54;;;;;;;1.50;1.40;;;22.60;59.30;;;;;;5005944;28;20492;-66
2023/06/30 00:03:19;;;;;;;1.73;1.55;;;22.60;59.40;;;;;;5006308;28;20092;-66
2023/06/30 00:05:46;;;;;;;2.67;1.80;;;22.60;59.20;;;;;;5004786;28;20037;-66
2023/06/30 00:08:12;;;;;;;2.17;1.75;;;22.60;59.30;;;;;;5003420;28;20436;-65
2023/06/30 00:10:38;;;;;;;1.50;1.30;;;22.60;59.40;;;;;;5003535;28;20489;-66
2023/06/30 00:13:03;;;;;;;2.53;1.67;;;22.70;59.50;;;;;;5005556;28;20033;-65
2023/06/30 00:15:29;;;;;;;2.28;2.08;;;22.60;59.30;;;;;;5000825;28;20030;-66
2023/06/30 00:17:55;;;;;;;1.75;1.50;;;22.60;59.30;;;;;;5000641;28;20498;-66
2023/06/30 00:20:23;;;;;;;2.92;1.58;;;22.60;59.50;;;;;;5002489;28;20042;-66
2023/06/30 00:22:49;;;;;;;1.95;1.63;;;22.60;59.50;;;;;;5005248;28;20038;-66
2023/06/30 00:25:15;;;;;;;1.80;1.63;;;22.60;59.60;;;;;;5006289;28;20033;-65
2023/06/30 00:27:40;;;;;;;1.77;1.40;;;22.60;59.40;;;;;;5003076;28;20034;-66
2023/06/30 00:30:06;;;;;;;1.80;1.58;;;22.60;59.60;;;;;;5006495;28;20026;-66
2023/06/30 00:32:32;;;;;;;2.42;1.98;;;22.60;59.60;;;;;;5005209;28;20026;-66
2023/06/30 00:34:58;;;;;;;2.70;1.63;;;22.60;59.50;;;;;;5004390;28;20045;-65
2023/06/30 00:37:24;;;;;;;1.73;1.42;;;22.60;59.40;;;;;;5005752;28;20030;-66
2023/06/30 00:39:50;;;;;;;2.13;1.77;;;22.60;59.40;;;;;;5003782;28;20030;-66
2023/06/30 00:42:16;;;;;;;2.17;1.52;;;22.60;59.50;;;;;;5005246;28;20032;-66
2023/06/30 00:44:41;;;;;;;1.77;1.67;;;22.60;59.40;;;;;;5001015;28;20053;-63
2023/06/30 00:47:07;;;;;;;2.38;1.80;;;22.60;59.60;;;;;;5005388;28;20144;-66
2023/06/30 00:49:33;;;;;;;1.77;1.67;;;22.60;59.60;;;;;;5006202;28;20030;-66
2023/06/30 00:51:59;;;;;;;1.50;1.40;;;22.60;59.50;;;;;;5003609;28;20251;-66
2023/06/30 00:54:25;;;;;;;2.92;1.75;;;22.60;59.70;;;;;;5006620;28;20491;-65
2023/06/30 00:56:50;;;;;;;2.28;1.55;;;22.60;59.70;;;;;;5003317;28;20026;-66
2023/06/30 00:59:16;;;;;;;1.40;1.30;;;22.60;59.70;;;;;;5005577;28;20068;-67
2023/06/30 01:01:56;;;;;;;1.40;1.30;;;22.60;59.70;;;;;;5003736;28;20092;-66
2023/06/30 01:04:54;;;;;;;2.42;1.58;;;22.60;59.60;;;;;;5001478;28;20033;-66
2023/06/30 01:07:55;;;;;;;1.73;1.63;;;22.60;59.60;;;;;;5002976;28;20062;-66
2023/06/30 01:10:24;;;;;;;2.03;1.65;;;22.60;59.70;;;;;;5002446;28;20412;-66
2023/06/30 01:12:50;;;;;;;2.58;1.33;;;22.60;59.60;;;;;;4998663;28;20030;-66
2023/06/30 01:15:16;;;;;;;1.52;1.42;;;22.60;59.70;;;;;;5001104;28;20097;-66
2023/06/30 01:17:46;;;;;;;1.65;1.55;;;22.60;59.70;;;;;;5002714;28;20076;-66
2023/06/30 01:20:14;;;;;;;1.90;1.67;;;22.60;59.90;;;;;;5006722;28;20052;-66
2023/06/30 01:22:46;;;;;;;1.60;1.50;;;22.60;59.60;;;;;;5007008;28;20492;-64
2023/06/30 01:25:19;;;;;;;2.63;1.67;;;22.60;59.70;;;;;;5007151;28;20046;-66
2023/06/30 01:27:45;;;;;;;2.53;2.00;;;22.60;59.50;;;;;;5007036;28;20034;-65
2023/06/30 01:30:11;;;;;;;2.92;1.70;;;22.60;59.80;;;;;;5008922;28;20048;-66
2023/06/30 01:32:37;;;;;;;1.75;1.65;;;22.60;59.70;;;;;;5003982;28;20034;-65
2023/06/30 01:35:03;;;;;;;1.55;1.45;;;22.60;59.80;;;;;;5000728;28;20095;-66
2023/06/30 01:37:29;;;;;;;2.13;1.73;;;22.60;59.70;;;;;;5004165;28;20443;-65
2023/06/30 01:39:54;;;;;;;2.10;1.80;;;22.60;59.70;;;;;;5000221;28;20018;-65
2023/06/30 01:42:20;;;;;;;1.80;1.20;;;22.60;59.60;;;;;;5006428;28;20057;-65
2023/06/30 01:44:47;;;;;;;2.33;1.88;;;22.60;59.80;;;;;;5002216;28;20026;-65
2023/06/30 01:47:13;;;;;;;2.53;1.75;;;22.60;59.80;;;;;;5006398;28;20038;-66
2023/06/30 01:49:39;;;;;;;2.28;2.05;;;22.60;59.90;;;;;;5004795;28;20030;-66
2023/06/30 01:52:05;;;;;;;1.90;1.80;;;22.60;59.90;;;;;;5004790;28;20034;-66
2023/06/30 01:54:30;;;;;;;2.42;1.80;;;22.60;59.90;;;;;;5005088;28;20552;-65
2023/06/30 01:56:56;;;;;;;1.77;1.67;;;22.60;59.80;;;;;;5003191;28;20245;-65
2023/06/30 01:59:22;;;;;;;2.10;1.90;;;22.60;60.00;;;;;;5004741;28;20037;-65
2023/06/30 02:01:48;;;;;;;2.30;1.95;;;22.60;60.00;;;;;;5004388;28;20034;-65
2023/06/30 02:04:13;;;;;;;1.60;1.50;;;22.60;59.80;;;;;;5005321;28;20090;-65
2023/06/30 02:06:39;;;;;;;2.60;1.83;;;22.60;59.90;;;;;;5002976;28;20260;-66
2023/06/30 02:09:04;;;;;;;3.10;1.60;;;22.60;59.90;;;;;;4998102;28;20022;-66
2023/06/30 02:11:30;;;;;;;3.75;1.73;;;22.60;59.90;;;;;;5002561;28;20029;-64
2023/06/30 02:13:55;;;;;;;2.17;1.70;;;22.60;60.10;;;;;;5000553;28;20265;-65
2023/06/30 02:16:21;;;;;;;2.00;1.80;;;22.60;59.90;;;;;;5001664;28;20386;-65
2023/06/30 02:18:46;;;;;;;1.70;1.60;;;22.60;59.90;;;;;;5001569;28;20991;-66
2023/06/30 02:21:12;;;;;;;3.25;1.88;;;22.60;60.00;;;;;;4999422;28;20077;-65
2023/06/30 02:23:37;;;;;;;4.72;1.73;;;22.60;60.00;;;;;;5014330;28;20037;-66
2023/06/30 02:26:03;;;;;;;2.20;2.00;;;22.60;59.90;;;;;;5003161;28;20109;-65
2023/06/30 02:28:28;;;;;;;2.35;1.90;;;22.60;60.10;;;;;;5003144;28;20026;-65
2023/06/30 02:30:55;;;;;;;2.30;2.00;;;22.60;60.10;;;;;;5001614;28;20037;-66
2023/06/30 02:33:21;;;;;;;1.90;1.30;;;22.60;60.00;;;;;;5003502;28;20057;-66
2023/06/30 02:35:46;;;;;;;1.90;1.80;;;22.60;60.10;;;;;;5002504;28;20034;-65
2023/06/30 02:38:12;;;;;;;2.33;2.13;;;22.60;60.20;;;;;;4998709;28;20092;-65
2023/06/30 02:40:37;;;;;;;2.10;1.90;;;22.60;60.30;;;;;;5001974;28;20385;-67
2023/06/30 02:43:03;;;;;;;2.05;1.70;;;22.60;60.10;;;;;;5004390;28;20177;-67
2023/06/30 02:45:28;;;;;;;2.42;2.08;;;22.60;60.30;;;;;;5003373;28;20034;-66
2023/06/30 02:47:54;;;;;;;2.05;1.83;;;22.60;60.40;;;;;;5004102;28;20030;-65
2023/06/30 02:50:28;;;;;;;2.20;2.00;;;22.60;60.20;;;;;;5004424;28;20508;-68
2023/06/30 02:52:54;;;;;;;2.17;1.90;;;22.60;60.10;;;;;;5003064;28;20031;-67
2023/06/30 02:55:19;;;;;;;2.50;2.10;;;22.60;60.30;;;;;;5005729;28;20092;-67
2023/06/30 02:57:45;;;;;;;2.75;2.00;;;22.60;60.20;;;;;;5002707;28;20485;-66
2023/06/30 03:00:11;;;;;;;3.05;1.67;;;22.60;60.10;;;;;;5003329;28;20458;-67
2023/06/30 03:02:36;;;;;;;1.73;1.63;;;22.60;60.20;;;;;;5004775;28;20096;-67
2023/06/30 03:05:02;;;;;;;2.67;1.95;;;22.60;60.10;;;;;;5000724;28;20033;-67
2023/06/30 03:07:27;;;;;;;1.90;1.80;;;22.60;60.30;;;;;;5003972;28;20083;-64
2023/06/30 03:09:53;;;;;;;2.78;1.95;;;22.60;60.30;;;;;;5001083;28;20033;-67
2023/06/30 03:12:18;;;;;;;1.95;1.85;;;22.60;60.20;;;;;;5002847;28;20032;-66
2023/06/30 03:14:44;;;;;;;2.90;1.80;;;22.60;60.20;;;;;;5002229;28;20038;-66
2023/06/30 03:17:09;;;;;;;2.00;1.80;;;22.60;60.30;;;;;;5001128;28;20022;-66
2023/06/30 03:19:35;;;;;;;3.60;2.08;;;22.60;60.40;;;;;;5001553;28;20026;-66
2023/06/30 03:22:00;;;;;;;2.25;2.05;;;22.60;60.40;;;;;;5003283;28;20041;-64
2023/06/30 03:24:26;;;;;;;2.00;1.83;;;22.60;60.40;;;;;;5003856;28;20121;-65
2023/06/30 03:26:51;;;;;;;2.17;1.80;;;22.60;60.50;;;;;;5000904;28;20030;-66
2023/06/30 03:29:17;;;;;;;2.35;1.98;;;22.60;60.40;;;;;;5002667;28;20110;-66
2023/06/30 03:31:42;;;;;;;2.33;2.10;;;22.60;60.40;;;;;;5001874;28;20054;-64
2023/06/30 03:34:08;;;;;;;3.08;2.00;;;22.60;60.40;;;;;;4998143;28;20086;-65
2023/06/30 03:36:33;;;;;;;2.65;2.03;;;22.60;60.40;;;;;;4997272;28;20092;-67
2023/06/30 03:38:59;;;;;;;2.53;2.30;;;22.60;60.50;;;;;;5000559;28;20412;-67
2023/06/30 03:41:26;;;;;;;3.00;2.10;;;22.60;61.20;;;;;;5000217;28;20069;-66
2023/06/30 03:43:52;;;;;;;2.38;2.05;;;22.60;60.60;;;;;;5002574;28;20623;-66
2023/06/30 03:46:17;;;;;;;2.97;2.15;;;22.60;60.50;;;;;;5000315;28;20250;-67
2023/06/30 03:48:43;;;;;;;3.17;2.42;;;22.60;60.50;;;;;;5002589;28;20403;-62
2023/06/30 03:51:08;;;;;;;2.70;2.50;;;22.60;60.50;;;;;;5023739;28;20034;-67
2023/06/30 03:53:34;;;;;;;2.53;2.20;;;22.60;60.50;;;;;;4997718;28;20045;-66
2023/06/30 03:55:59;;;;;;;3.50;2.53;;;22.60;60.70;;;;;;5000014;28;20038;-67
2023/06/30 03:58:25;;;;;;;2.78;2.35;;;22.60;60.80;;;;;;4996688;28;20112;-67
2023/06/30 04:00:50;;;;;;;2.40;2.20;;;22.60;60.60;;;;;;5001065;28;20113;-62
2023/06/30 04:03:16;;;;;;;2.40;2.03;;;22.60;60.60;;;;;;5006731;28;20367;-68
2023/06/30 04:05:41;;;;;;;2.50;2.30;;;22.50;60.50;;;;;;5005985;28;20145;-67
2023/06/30 04:08:07;;;;;;;2.45;1.90;;;22.60;60.50;;;;;;5001020;28;20061;-67
2023/06/30 04:10:32;;;;;;;2.53;2.20;;;22.60;60.70;;;;;;5006399;28;20560;-68
2023/06/30 04:12:58;;;;;;;2.90;2.50;;;22.60;61.10;;;;;;5006938;28;20034;-67
2023/06/30 04:15:23;;;;;;;3.83;2.92;;;22.50;61.70;;;;;;5005208;28;20053;-66
2023/06/30 04:17:49;;;;;;;3.58;2.90;;;22.50;61.40;;;;;;5005257;28;20219;-67
2023/06/30 04:20:15;;;;;;;4.07;3.10;;;22.60;62.10;;;;;;5005264;28;20499;-67
2023/06/30 04:22:41;;;;;;;3.63;3.00;;;22.50;61.60;;;;;;5003328;28;20026;-63
2023/06/30 04:25:07;;;;;;;2.72;2.38;;;22.50;62.60;;;;;;5004498;28;20358;-66
2023/06/30 04:27:32;;;;;;;3.33;3.03;;;22.50;61.90;;;;;;5004900;28;20501;-67
2023/06/30 04:29:58;;;;;;;3.63;3.30;;;22.50;61.80;;;;;;5006594;28;20068;-68
2023/06/30 04:32:23;;;;;;;4.25;3.30;;;22.50;61.90;;;;;;5007951;28;20088;-66
2023/06/30 04:34:49;;;;;;;3.55;3.08;;;22.50;61.90;;;;;;5010123;28;20098;-66
2023/06/30 04:37:14;;;;;;;4.25;3.75;;;22.50;62.70;;;;;;5006301;28;20053;-69
2023/06/30 04:39:42;;;;;;;4.15;3.47;;;22.50;61.60;;;;;;5009727;28;20173;-68
2023/06/30 04:42:07;;;;;;;5.85;3.55;;;22.50;61.60;;;;;;5010316;28;20022;-68
2023/06/30 04:44:33;;;;;;;4.25;3.50;;;22.50;62.10;;;;;;5010307;28;20052;-68
2023/06/30 04:46:58;;;;;;;5.93;4.05;;;22.50;61.90;;;;;;5009876;28;20515;-67
2023/06/30 04:49:24;;;;;;;6.30;3.58;;;22.50;62.10;;;;;;5009665;28;20026;-67
2023/06/30 04:51:50;;;;;;;5.13;4.05;;;22.50;62.00;;;;;;5009691;28;20091;-63
2023/06/30 04:54:16;;;;;;;4.35;3.60;;;22.50;62.20;;;;;;5007704;28;20105;-67
2023/06/30 04:56:41;;;;;;;7.65;4.28;;;22.50;62.00;;;;;;5004375;28;20061;-67
2023/06/30 04:59:07;;;;;;;4.85;4.05;;;22.50;62.70;;;;;;4999621;28;20467;-68
2023/06/30 05:01:32;;;;;;;8.98;5.13;;;22.50;62.20;;;;;;5005262;28;20048;-67
2023/06/30 05:03:58;;;;;;;6.15;4.22;;;22.50;62.80;;;;;;5001737;28;20038;-66
2023/06/30 05:06:24;;;;;;;6.03;4.30;;;22.50;62.70;;;;;;5002555;28;20038;-64
2023/06/30 05:08:50;;;;;;;6.03;4.25;;;22.50;62.30;;;;;;5005854;28;20034;-68
2023/06/30 05:11:15;;;;;;;8.77;3.63;;;22.50;62.50;;;;;;5005091;28;20037;-65
2023/06/30 05:13:41;;;;;;;10.90;5.22;;;22.50;62.20;;;;;;5003630;28;20034;-61
2023/06/30 05:16:06;;;;;;;10.55;4.85;;;22.40;65.50;;;;;;5005146;28;20053;-64
2023/06/30 05:18:32;;;;;;;7.40;4.45;;;22.40;66.30;;;;;;5003517;28;20026;-68
2023/06/30 05:20:57;;;;;;;7.25;5.10;;;22.40;66.90;;;;;;5004914;28;20041;-68
2023/06/30 05:23:23;;;;;;;8.93;5.60;;;22.40;67.20;;;;;;5004027;28;20037;-67
2023/06/30 05:25:49;;;;;;;8.48;5.78;;;22.30;67.70;;;;;;5001140;28;20032;-65
2023/06/30 05:28:15;;;;;;;7.18;5.53;;;22.30;67.90;;;;;;5003211;28;20084;-66
2023/06/30 05:30:41;;;;;;;7.68;5.43;;;22.30;67.90;;;;;;5003380;28;20038;-69
2023/06/30 05:33:06;;;;;;;7.28;5.20;;;22.40;67.90;;;;;;5003833;28;20044;-66
2023/06/30 05:35:32;;;;;;;5.97;5.07;;;22.30;67.50;;;;;;5002600;28;20049;-66
2023/06/30 05:37:57;;;;;;;7.45;5.18;;;22.40;67.30;;;;;;5003193;28;20030;-66
2023/06/30 05:40:23;;;;;;;7.45;5.25;;;22.40;67.90;;;;;;5004552;28;20073;-68
2023/06/30 05:42:48;;;;;;;6.53;5.22;;;22.40;67.90;;;;;;5004459;28;20404;-66
2023/06/30 05:45:14;;;;;;;6.22;5.10;;;22.40;68.00;;;;;;5001330;28;20409;-67
2023/06/30 05:47:39;;;;;;;8.38;5.60;;;22.40;68.00;;;;;;5003588;28;20034;-68
2023/06/30 05:50:05;;;;;;;10.63;5.28;;;22.40;67.90;;;;;;5002114;28;20449;-67
2023/06/30 05:52:31;;;;;;;7.22;5.38;;;22.40;67.90;;;;;;5016150;28;20038;-67
2023/06/30 05:54:56;;;;;;;6.93;5.40;;;22.40;68.10;;;;;;5001235;28;20517;-66
2023/06/30 05:57:21;;;;;;;10.10;5.72;;;22.40;67.90;;;;;;5001857;28;20048;-66
2023/06/30 05:59:47;;;;;;;7.10;5.80;;;22.40;67.90;;;;;;5004850;28;20034;-66
2023/06/30 06:02:12;;;;;;;8.20;5.95;;;22.40;67.80;;;;;;5002429;28;20224;-66
2023/06/30 06:04:38;;;;;;;9.35;6.93;;;22.40;67.50;;;;;;5004925;28;20022;-67
2023/06/30 06:07:05;;;;;;;7.22;5.65;;;22.40;66.10;;;;;;5006243;28;20026;-66
2023/06/30 06:09:31;;;;;;;6.65;5.35;;;22.50;67.00;;;;;;5005895;28;20027;-68
2023/06/30 06:11:57;;;;;;;7.90;5.47;;;22.50;66.50;;;;;;5002300;28;20500;-67
2023/06/30 06:14:22;;;;;;;7.60;6.25;;;22.50;66.80;;;;;;5002599;28;20026;-68
2023/06/30 06:16:47;;;;;;;8.25;6.47;;;22.50;66.80;;;;;;4999636;28;20022;-68
2023/06/30 06:19:14;;;;;;;8.15;6.28;;;22.50;66.80;;;;;;5003911;28;20090;-66
2023/06/30 06:21:40;;;;;;;7.03;6.32;;;22.50;66.80;;;;;;5001306;28;20033;-66
2023/06/30 06:24:07;;;;;;;7.45;6.50;;;22.50;66.20;;;;;;4999543;28;20038;-64
2023/06/30 06:26:32;;;;;;;10.98;6.07;;;22.50;65.90;;;;;;5001629;28;20108;-67
2023/06/30 06:28:58;;;;;;;9.60;6.78;;;22.60;66.10;;;;;;5002259;28;20470;-65
2023/06/30 06:31:24;;;;;;;10.95;7.65;;;22.50;66.50;;;;;;5002588;28;20421;-66
2023/06/30 06:33:50;;;;;;;11.85;7.88;;;22.60;65.90;;;;;;5004235;28;20468;-67
2023/06/30 06:36:15;;;;;;;8.88;6.57;;;22.60;65.70;;;;;;5002887;28;20500;-66
2023/06/30 06:38:41;;;;;;;10.35;7.65;;;22.60;65.70;;;;;;5003704;28;20030;-67
2023/06/30 06:41:06;;;;;;;7.65;6.85;;;22.60;65.10;;;;;;5002958;28;20056;-66
2023/06/30 06:43:32;;;;;;;12.02;8.38;;;22.60;65.50;;;;;;5000839;28;20030;-66
2023/06/30 06:45:57;;;;;;;9.77;6.93;;;22.60;64.90;;;;;;5001771;28;20030;-67
2023/06/30 06:48:25;;;;;;;14.38;8.52;;;22.60;65.60;;;;;;5002772;28;20034;-67
2023/06/30 06:50:55;;;;;;;11.52;7.93;;;22.50;64.80;;;;;;5000638;28;20033;-67
2023/06/30 06:53:25;;;;;;;9.82;7.28;;;22.50;65.40;;;;;;5000901;28;20115;-65
2023/06/30 06:55:51;;;;;;;14.77;7.95;;;22.60;65.00;;;;;;5002555;28;20026;-63
2023/06/30 06:58:17;;;;;;;9.38;7.05;;;22.60;64.60;;;;;;5001433;28;20034;-69
2023/06/30 07:00:45;;;;;;;10.10;7.75;;;22.60;64.60;;;;;;5001515;28;20563;-66
2023/06/30 07:03:11;;;;;;;10.55;7.53;;;22.50;64.60;;;;;;5002815;28;20393;-67
2023/06/30 07:05:37;;;;;;;10.40;7.50;;;22.60;64.50;;;;;;5003294;28;20041;-63
2023/06/30 07:08:04;;;;;;;9.85;7.45;;;22.60;64.70;;;;;;4998339;28;20062;-68
2023/06/30 07:10:30;;;;;;;11.52;7.60;;;22.60;64.40;;;;;;5003317;28;20037;-66
2023/06/30 07:12:56;;;;;;;11.38;7.97;;;22.60;65.10;;;;;;5004208;28;20096;-67
2023/06/30 07:15:22;;;;;;;12.95;9.90;;;22.60;64.60;;;;;;5001472;28;20485;-68
2023/06/30 07:17:47;;;;;;;12.95;8.73;;;22.60;64.40;;;;;;5004240;28;20045;-68
2023/06/30 07:20:13;;;;;;;11.05;8.52;;;22.60;65.70;;;;;;5003045;28;20036;-67
2023/06/30 07:22:38;;;;;;;14.65;8.50;;;22.50;64.80;;;;;;4999510;28;20081;-68
2023/06/30 07:25:06;;;;;;;9.88;7.13;;;22.50;64.90;;;;;;5003180;28;20026;-68
2023/06/30 07:27:32;;;;;;;12.63;8.38;;;22.50;64.70;;;;;;4999856;28;20038;-66
2023/06/30 07:29:57;;;;;;;11.95;8.77;;;22.50;64.60;;;;;;5002569;28;20377;-66
2023/06/30 07:32:22;;;;;;;10.48;7.75;;;22.60;64.40;;;;;;4994883;28;20445;-67
2023/06/30 07:34:48;;;;;;;11.18;8.35;;;22.60;64.00;;;;;;5001358;28;20046;-66
2023/06/30 07:37:13;;;;;;;11.38;8.23;;;22.60;64.80;;;;;;5005376;28;20528;-68
2023/06/30 07:39:40;;;;;;;13.45;8.85;;;22.60;64.80;;;;;;5005527;28;20065;-67
2023/06/30 07:42:06;;;;;;;11.02;8.00;;;22.60;64.60;;;;;;5002989;28;20022;-67
2023/06/30 07:44:31;;;;;;;8.55;7.28;;;22.60;64.90;;;;;;5000715;28;20493;-66
2023/06/30 07:46:57;;;;;;;11.55;8.05;;;22.60;65.00;;;;;;5004742;28;20029;-67
2023/06/30 07:49:23;;;;;;;10.73;7.70;;;22.60;64.90;;;;;;5001665;28;20030;-67
2023/06/30 07:51:48;;;;;;;9.48;6.95;;;22.50;64.70;;;;;;5007655;28;20481;-66
2023/06/30 07:54:15;;;;;;;13.32;7.55;;;22.50;64.80;;;;;;5001942;28;20109;-66
2023/06/30 07:56:40;;;;;;;11.30;7.80;;;22.60;64.60;;;;;;5004899;28;20136;-67
2023/06/30 07:59:07;;;;;;;11.88;8.35;;;22.50;64.40;;;;;;5009255;28;20334;-67
2023/06/30 08:01:32;;;;;;;9.90;7.78;;;22.60;64.60;;;;;;5003838;28;20560;-67
2023/06/30 08:03:57;;;;;;;10.38;7.30;;;22.60;64.50;;;;;;5004411;28;20030;-66
2023/06/30 08:06:23;;;;;;;10.63;7.40;;;22.60;64.30;;;;;;5004254;28;20042;-67
2023/06/30 08:08:48;;;;;;;8.68;7.10;;;22.60;64.60;;;;;;5005808;28;20034;-66
2023/06/30 08:11:14;;;;;;;10.88;7.80;;;22.60;65.20;;;;;;5005106;28;20034;-66
2023/06/30 08:13:39;;;;;;;10.55;7.78;;;22.60;64.50;;;;;;5004621;28;20637;-67
2023/06/30 08:16:05;;;;;;;10.55;7.47;;;22.60;64.20;;;;;;5003898;28;20361;-68
2023/06/30 08:18:30;;;;;;;10.60;7.05;;;22.60;64.30;;;;;;5005242;28;20032;-65
2023/06/30 08:20:56;;;;;;;8.02;6.82;;;22.60;64.00;;;;;;5004349;28;20030;-68
2023/06/30 08:23:22;;;;;;;10.75;6.75;;;22.60;63.60;;;;;;5004361;28;20440;-66
2023/06/30 08:25:47;;;;;;;8.05;6.63;;;22.60;64.10;;;;;;5004932;28;20042;-66
2023/06/30 08:28:13;;;;;;;8.38;6.07;;;22.60;63.90;;;;;;5005890;28;20033;-66
2023/06/30 08:30:38;;;;;;;8.50;6.75;;;22.60;64.00;;;;;;5003520;28;20137;-67
2023/06/30 08:33:03;;;;;;;9.73;7.88;;;22.70;64.10;;;;;;5005017;28;20029;-67
2023/06/30 08:35:29;;;;;;;10.18;6.90;;;22.70;64.40;;;;;;5003674;28;20141;-67
2023/06/30 08:37:54;;;;;;;8.32;6.70;;;22.50;64.40;;;;;;5004613;28;20088;-66
2023/06/30 08:40:25;;;;;;;10.27;7.30;;;22.60;64.40;;;;;;5005712;28;20042;-67
2023/06/30 08:42:52;;;;;;;9.10;7.18;;;22.50;64.10;;;;;;5009392;28;20065;-68
2023/06/30 08:45:18;;;;;;;8.85;6.10;;;22.50;64.30;;;;;;5005617;28;20040;-67
2023/06/30 08:47:44;;;;;;;9.18;6.72;;;22.60;64.30;;;;;;5001528;28;20030;-67
2023/06/30 08:50:10;;;;;;;10.73;6.38;;;22.60;64.10;;;;;;5004628;28;20072;-66
2023/06/30 08:52:36;;;;;;;8.55;7.13;;;22.60;64.10;;;;;;5004707;28;20044;-67
2023/06/30 08:55:02;;;;;;;9.18;6.47;;;22.60;64.10;;;;;;5005156;28;20034;-67
2023/06/30 08:57:29;;;;;;;9.57;5.90;;;22.60;64.00;;;;;;5004049;28;20061;-67
2023/06/30 08:59:55;;;;;;;9.32;6.88;;;22.60;64.20;;;;;;5004928;28;20033;-68
2023/06/30 09:02:22;;;;;;;8.65;6.90;;;22.60;63.80;;;;;;5005455;28;20034;-67
2023/06/30 09:04:48;;;;;;;9.15;6.57;;;22.60;63.80;;;;;;5003254;28;20096;-67
2023/06/30 09:07:27;;;;;;;8.70;5.95;;;22.60;64.00;;;;;;5004293;28;20026;-67
2023/06/30 09:10:02;;;;;;;7.75;6.93;;;22.70;63.70;;;;;;5005054;28;20030;-68
2023/06/30 09:12:28;;;;;;;5.97;5.38;;;22.70;64.10;;;;;;5004775;28;20056;-65
2023/06/30 09:14:58;;;;;;;8.20;6.25;;;22.70;63.80;;;;;;5004828;28;20042;-68
2023/06/30 09:17:25;;;;;;;9.93;6.88;;;22.70;63.70;;;;;;5001358;28;20030;-69
2023/06/30 09:19:51;;;;;;;11.35;7.22;;;22.60;64.00;;;;;;5004467;28;20731;-68
2023/06/30 09:22:20;;;;;;;8.27;7.28;;;22.60;64.70;;;;;;5005062;28;20521;-67
2023/06/30 09:24:45;;;;;;;8.85;6.50;;;22.60;64.30;;;;;;5004117;28;20469;-66
2023/06/30 09:27:11;;;;;;;9.70;7.25;;;22.70;64.20;;;;;;5002902;28;20079;-67
2023/06/30 09:29:36;;;;;;;8.05;6.18;;;22.60;64.70;;;;;;5004760;28;20108;-66
2023/06/30 09:32:03;;;;;;;8.70;7.15;;;22.60;64.50;;;;;;5025230;28;20037;-68
2023/06/30 09:34:29;;;;;;;9.80;6.88;;;22.60;64.60;;;;;;5002905;28;20381;-67
2023/06/30 09:36:55;;;;;;;8.27;7.35;;;22.70;64.60;;;;;;5003297;28;20073;-66
2023/06/30 09:39:22;;;;;;;9.70;6.78;;;22.60;64.50;;;;;;5001687;28;20041;-68
2023/06/30 09:41:50;;;;;;;8.25;6.47;;;22.60;64.70;;;;;;5002453;28;20034;-68
2023/06/30 09:44:19;;;;;;;7.57;6.18;;;22.70;64.60;;;;;;5004355;28;20030;-66
2023/06/30 09:46:52;;;;;;;7.82;6.53;;;22.70;64.50;;;;;;4999386;28;20042;-67
2023/06/30 09:49:32;;;;;;;7.85;6.40;;;22.70;64.30;;;;;;5001386;28;20038;-68
2023/06/30 09:52:01;;;;;;;10.13;6.85;;;22.70;64.20;;;;;;4993816;28;20398;-68
2023/06/30 09:54:27;;;;;;;9.95;6.38;;;22.70;64.30;;;;;;5003564;28;20062;-68
2023/06/30 09:57:00;;;;;;;9.00;7.45;;;22.70;64.20;;;;;;5004321;28;20065;-66
2023/06/30 09:59:26;;;;;;;7.88;6.45;;;22.70;64.00;;;;;;5002069;28;20037;-67
2023/06/30 10:01:53;;;;;;;7.88;6.88;;;22.70;64.10;;;;;;4996744;28;20022;-66
2023/06/30 10:04:18;;;;;;;11.23;6.22;;;22.70;64.00;;;;;;5003324;28;20030;-68
2023/06/30 10:06:46;;;;;;;10.82;7.00;;;22.70;63.70;;;;;;5003333;28;20060;-68
2023/06/30 10:09:13;;;;;;;9.05;6.88;;;22.70;64.00;;;;;;5000566;28;20428;-67
2023/06/30 10:11:40;;;;;;;10.07;7.57;;;22.70;64.50;;;;;;5002144;28;20042;-68
2023/06/30 10:14:06;;;;;;;8.30;6.82;;;22.70;64.00;;;;;;5003523;28;20033;-65
2023/06/30 10:16:32;;;;;;;8.80;7.00;;;22.70;63.90;;;;;;5003374;28;20570;-68
2023/06/30 10:19:02;;;;;;;8.38;6.90;;;22.80;63.90;;;;;;5005760;28;20053;-67
2023/06/30 10:21:27;;;;;;;8.50;7.03;;;22.80;64.00;;;;;;5005103;28;20042;-66
2023/06/30 10:23:54;;;;;;;10.10;6.93;;;22.80;63.90;;;;;;5005845;28;20027;-70
2023/06/30 10:26:21;;;;;;;10.45;7.25;;;22.80;63.90;;;;;;5003153;28;20969;-67
2023/06/30 10:28:47;;;;;;;11.30;7.25;;;22.70;64.10;;;;;;5000804;28;20110;-67
2023/06/30 10:31:13;;;;;;;8.88;6.45;;;22.80;63.80;;;;;;5000687;28;20022;-68
2023/06/30 10:33:39;;;;;;;7.47;6.53;;;22.80;63.80;;;;;;5001956;28;20113;-67
2023/06/30 10:36:05;;;;;;;7.70;6.10;;;22.80;64.10;;;;;;4999442;28;20139;-68
2023/06/30 10:38:31;;;;;;;8.25;6.20;;;22.70;63.70;;;;;;4996535;28;20556;-67
2023/06/30 10:41:13;;;;;;;8.43;6.07;;;22.80;63.70;;;;;;5001506;28;20121;-67
2023/06/30 10:44:07;;;;;;;8.18;6.28;;;22.80;63.70;;;;;;5002259;28;20044;-67
2023/06/30 10:46:49;;;;;;;8.25;6.05;;;22.80;63.80;;;;;;5001116;28;20124;-67
2023/06/30 10:49:31;;;;;;;9.73;6.40;;;22.80;63.90;;;;;;5001477;28;20038;-68
2023/06/30 10:51:58;;;;;;;10.40;6.82;;;22.80;63.80;;;;;;5000913;28;20026;-67
2023/06/30 10:54:25;;;;;;;8.40;7.18;;;22.80;64.00;;;;;;5003717;28;20099;-67
2023/06/30 10:56:52;;;;;;;10.32;7.07;;;22.90;63.90;;;;;;5000903;28;20034;-69
2023/06/30 10:59:23;;;;;;;9.95;6.95;;;22.90;63.40;;;;;;5004626;28;20034;-67
2023/06/30 11:02:19;;;;;;;7.15;5.68;;;22.90;63.50;;;;;;5003409;28;20032;-68
2023/06/30 11:04:45;;;;;;;;;;;22.90;63.40;;;;;;5000847;28;20034;-65
2023/06/30 11:07:34;;;;;;;7.55;5.90;;;22.90;63.50;;;;;;5003171;28;20289;-68
2023/06/30 11:10:00;;;;;;;7.95;6.18;;;22.80;63.60;;;;;;5000536;28;20026;-68
2023/06/30 11:12:27;;;;;;;8.13;6.00;;;22.90;63.70;;;;;;5001789;28;20493;-67
2023/06/30 11:15:00;;;;;;;8.23;6.13;;;22.90;63.40;;;;;;5002048;28;20038;-67
2023/06/30 11:17:27;;;;;;;8.75;6.30;;;22.90;63.50;;;;;;5001900;28;20030;-68
2023/06/30 11:20:11;;;;;;;7.20;6.30;;;22.90;63.60;;;;;;5001103;28;20029;-68
2023/06/30 11:22:37;;;;;;;9.05;6.32;;;22.90;63.30;;;;;;4999436;28;20048;-66
2023/06/30 11:25:10;;;;;;;9.43;6.90;;;22.90;63.20;;;;;;5002348;28;20026;-67
2023/06/30 11:27:37;;;;;;;8.10;6.50;;;22.90;63.20;;;;;;5000334;28;20559;-67
2023/06/30 11:30:04;;;;;;;9.43;7.57;;;22.90;63.20;;;;;;5002290;28;20026;-67
2023/06/30 11:32:31;;;;;;;9.70;6.50;;;22.90;62.90;;;;;;5003123;28;20050;-67
2023/06/30 11:34:58;;;;;;;10.80;7.00;;;22.90;63.00;;;;;;4998749;28;20413;-67
2023/06/30 11:37:24;;;;;;;9.80;6.15;;;22.90;62.90;;;;;;5003104;28;20034;-69
2023/06/30 11:39:57;;;;;;;7.13;6.30;;;22.90;63.00;;;;;;5000168;28;20038;-66
2023/06/30 11:42:23;;;;;;;9.57;6.55;;;22.90;62.90;;;;;;5002845;28;20060;-68
2023/06/30 11:44:49;;;;;;;9.10;6.45;;;23.00;63.00;;;;;;5000163;28;20049;-68
2023/06/30 11:47:18;;;;;;;8.23;6.47;;;23.00;63.40;;;;;;5001828;28;20044;-68
2023/06/30 11:49:46;;;;;;;10.15;6.95;;;23.00;62.70;;;;;;5000225;28;20026;-67
2023/06/30 11:52:12;;;;;;;6.95;5.72;;;23.00;62.80;;;;;;4993548;28;20058;-67
2023/06/30 11:54:39;;;;;;;7.72;6.70;;;23.00;62.80;;;;;;5001075;28;20080;-65
2023/06/30 11:57:05;;;;;;;7.97;6.68;;;23.00;62.80;;;;;;5002522;28;20586;-67
2023/06/30 11:59:31;;;;;;;7.95;6.20;;;23.00;62.80;;;;;;5003397;28;20030;-66
2023/06/30 12:01:57;;;;;;;8.93;6.65;;;23.00;62.80;;;;;;4994493;28;20053;-68
2023/06/30 12:04:26;;;;;;;12.00;7.00;;;23.00;63.00;;;;;;5000428;28;20077;-69
2023/06/30 12:06:54;;;;;;;10.15;7.20;;;22.90;63.50;;;;;;4999051;28;20142;-65
2023/06/30 12:09:20;;;;;;;9.73;7.55;;;22.90;63.90;;;;;;5001110;28;20037;-66
2023/06/30 12:11:46;;;;;;;11.77;8.27;;;22.80;64.00;;;;;;5001886;28;20041;-66
2023/06/30 12:14:15;;;;;;;10.85;7.63;;;22.70;63.80;;;;;;4999208;28;20026;-67
2023/06/30 12:16:44;;;;;;;10.60;7.47;;;22.70;63.70;;;;;;5000629;28;20488;-67
2023/06/30 12:19:10;;;;;;;10.68;7.47;;;22.70;63.20;;;;;;5001834;28;20117;-65
2023/06/30 12:21:49;;;;;;;10.73;7.10;;;22.70;63.40;;;;;;4998564;28;20382;-66
2023/06/30 12:24:18;;;;;;;13.98;7.97;;;22.70;63.30;;;;;;5006082;28;20500;-67
2023/06/30 12:26:44;;;;;;;10.10;7.63;;;22.70;63.50;;;;;;5004179;28;20100;-67
2023/06/30 12:29:09;;;;;;;12.93;7.72;;;22.60;64.70;;;;;;4999944;28;20504;-65
2023/06/30 12:31:35;;;;;;;12.02;8.77;;;22.60;64.60;;;;;;5004497;28;20316;-66
2023/06/30 12:34:00;;;;;;;12.35;7.93;;;22.60;65.10;;;;;;5000807;28;20038;-65
2023/06/30 12:36:29;;;;;;;15.18;8.73;;;22.50;65.60;;;;;;5005498;28;20053;-66
2023/06/30 12:38:55;;;;;;;11.82;8.98;;;22.50;66.30;;;;;;5004644;28;20080;-66
2023/06/30 12:41:21;;;;;;;15.52;10.15;;;22.50;66.20;;;;;;5004954;28;21979;-67
2023/06/30 12:43:46;;;;;;;13.07;9.18;;;22.50;66.80;;;;;;5004447;28;20026;-66